This is the latest recevied weather packets stored in our database for station/object DL4ABR-6. If no packets are shown the sender has not sent any weather packets the latest 10 day(s).
| Time | Temp. | Humidity | Pressure | Rain* | Wind** | Luminosity | Snow |
|---|---|---|---|---|---|---|---|
| 1777553460 | 18.89° C | 34% | 1027 hPa | 0 mm | - | - | - |
| 1777550344 | 18.33° C | 35% | 1027.4 hPa | 0 mm | - | - | - |
| 1777548715 | 17.78° C | 35% | 1027.7 hPa | 0 mm | - | - | - |
| 1777545520 | 17.22° C | 35% | 1027.9 hPa | 0 mm | - | - | - |
| 1777544770 | 16.67° C | 35% | 1028.3 hPa | 0 mm | - | - | - |
| 1777544023 | 16.67° C | 36% | 1028.2 hPa | 0 mm | - | - | - |
| 1777542424 | 16.67° C | 35% | 1028.3 hPa | 0 mm | - | - | - |
| 1777540810 | 16.67° C | 34% | 1028.4 hPa | 0 mm | - | - | - |
| 1777539935 | 15.56° C | 35% | 1028.7 hPa | 0 mm | - | - | - |
| 1777538325 | 15.56° C | 34% | 1028.6 hPa | 0 mm | - | - | - |
| 1777537565 | 14.44° C | 37% | 1028.9 hPa | 0 mm | - | - | - |
| 1777535967 | 15° C | 35% | 1029 hPa | 0 mm | - | - | - |
| 1777535070 | 13.89° C | 38% | 1028.8 hPa | 0 mm | - | - | - |
| 1777534300 | 13.33° C | 39% | 1029 hPa | 0 mm | - | - | - |
| 1777533432 | 13.89° C | 45% | 1029 hPa | 0 mm | - | - | - |
| 1777532584 | 12.22° C | 51% | 1028.8 hPa | 0 mm | - | - | - |
| 1777531800 | 10° C | 57% | 1028.6 hPa | 0 mm | - | - | - |
| 1777531060 | 9.44° C | 61% | 1028.6 hPa | 0 mm | - | - | - |
| 1777530260 | 6.11° C | 72% | 1028.6 hPa | 0 mm | - | - | - |
| 1777529420 | 5° C | 76% | 1029 hPa | 0 mm | - | - | - |
| 1777528550 | 3.33° C | 89% | 1028.9 hPa | 0 mm | - | - | - |
| 1777527830 | 2.22° C | 93% | 1029 hPa | 0 mm | - | - | - |
| 1777526980 | 1.11° C | 94% | 1028.7 hPa | 0 mm | - | - | - |
| 1777526095 | 0° C | 94% | 1028.7 hPa | 0 mm | - | - | - |
| 1777525220 | 0° C | 93% | 1028.6 hPa | 0 mm | - | - | - |
* Rain since midnight (hover to see other rain measurements)
** Current wind speed in m/s (hover to see current wind gust speed)